createdAt,value
2023-05-10T00:00:36.462Z,100493.66
2023-05-10T00:03:07.049Z,100491.13
2023-05-10T00:05:36.685Z,100485.03
2023-05-10T00:08:06.342Z,100476.38
2023-05-10T00:10:38.503Z,100475.41
2023-05-10T00:13:08.112Z,100470.06
2023-05-10T00:15:38.166Z,100466.56
2023-05-10T00:18:07.842Z,100455.19
2023-05-10T00:20:37.662Z,100449.19
2023-05-10T00:23:07.266Z,100441.34
2023-05-10T00:25:39.326Z,100435.09
2023-05-10T00:28:08.907Z,100429.91
2023-05-10T00:30:38.458Z,100421.97
2023-05-10T00:33:08.107Z,100415.13
2023-05-10T00:35:38.980Z,100418.44
2023-05-10T00:38:08.602Z,100402.84
2023-05-10T00:40:42.033Z,100402.75
2023-05-10T00:43:11.523Z,100390.66
2023-05-10T00:45:41.675Z,100395.81
2023-05-10T00:48:11.433Z,100395.03
2023-05-10T00:50:41.214Z,100393.91
2023-05-10T00:53:11.383Z,100392.22
2023-05-10T00:55:43.521Z,100378.28
2023-05-10T00:58:14.030Z,100372.13
2023-05-10T01:00:45.651Z,100362.56
2023-05-10T01:03:15.557Z,100351.19
2023-05-10T01:05:45.250Z,100355.53
2023-05-10T01:08:14.933Z,100345.06
2023-05-10T01:10:47.505Z,100344.00
2023-05-10T01:13:17.196Z,100334.50
2023-05-10T01:15:46.857Z,100334.50
2023-05-10T01:18:16.524Z,100325.78
2023-05-10T01:20:50.279Z,100324.78
2023-05-10T01:23:40.087Z,100316.09
2023-05-10T01:26:19.366Z,100317.06
2023-05-10T01:29:15.781Z,100316.84
2023-05-10T01:32:09.239Z,100309.78
2023-05-10T01:34:41.567Z,100312.31
2023-05-10T01:37:15.211Z,100310.56
2023-05-10T01:39:49.738Z,100300.91
2023-05-10T01:42:22.851Z,100292.19
2023-05-10T01:44:58.065Z,100297.31
2023-05-10T01:47:35.446Z,100282.50
2023-05-10T01:50:07.549Z,100277.44
2023-05-10T01:52:40.729Z,100283.41
2023-05-10T01:55:13.410Z,100249.75
2023-05-10T01:57:44.633Z,100242.06
2023-05-10T02:00:15.898Z,100232.50
2023-05-10T02:02:49.235Z,100234.31
2023-05-10T02:05:19.387Z,100201.50
2023-05-10T02:07:49.238Z,100217.69
2023-05-10T02:10:19.695Z,100186.00
2023-05-10T02:12:51.907Z,100214.84
2023-05-10T02:15:28.083Z,100194.91
2023-05-10T02:18:01.273Z,100182.19
2023-05-10T02:20:31.079Z,100176.84
2023-05-10T02:23:01.947Z,100181.91
2023-05-10T02:25:32.677Z,100166.44
2023-05-10T02:28:04.032Z,100192.16
2023-05-10T02:30:35.439Z,100171.59
2023-05-10T02:33:08.561Z,100165.22
2023-05-10T02:35:39.437Z,100172.78
2023-05-10T02:38:09.406Z,100163.25
2023-05-10T02:40:40.936Z,100144.38
2023-05-10T02:43:13.623Z,100115.16
2023-05-10T02:45:43.682Z,100127.75
2023-05-10T02:48:15.865Z,100130.28
2023-05-10T02:50:52.382Z,100128.59
2023-05-10T02:53:26.632Z,100109.63
2023-05-10T02:55:56.941Z,100106.91
2023-05-10T02:58:26.503Z,100100.75
2023-05-10T03:00:56.169Z,100102.25
2023-05-10T03:03:31.001Z,100075.72
2023-05-10T03:06:00.521Z,100073.91
2023-05-10T03:08:30.444Z,100072.88
2023-05-10T03:11:12.273Z,100058.00
2023-05-10T03:13:48.409Z,100056.31
2023-05-10T03:16:19.904Z,100052.41
2023-05-10T03:18:58.905Z,100047.31
2023-05-10T03:21:29.972Z,100054.06
2023-05-10T03:24:03.686Z,100059.91
2023-05-10T03:26:33.223Z,100041.97
2023-05-10T03:29:03.176Z,100038.56
2023-05-10T03:31:32.788Z,100027.56
2023-05-10T03:34:05.056Z,100042.94
2023-05-10T03:36:34.561Z,100038.56
2023-05-10T03:39:04.117Z,100040.13
2023-05-10T03:41:33.704Z,100050.28
2023-05-10T03:44:03.178Z,100027.38
2023-05-10T03:46:32.693Z,100034.78
2023-05-10T03:49:04.847Z,100027.81
2023-05-10T03:51:34.343Z,100029.50
2023-05-10T03:54:03.870Z,100035.56
2023-05-10T03:56:33.726Z,100032.19
2023-05-10T03:59:08.403Z,100012.34
2023-05-10T04:01:38.006Z,100002.38
2023-05-10T04:04:10.397Z,100020.16
2023-05-10T04:06:39.967Z,100014.97
2023-05-10T04:09:09.533Z,100002.38
2023-05-10T04:11:39.027Z,100025.53
2023-05-10T04:14:08.511Z,100023.50
2023-05-10T04:16:38.112Z,100002.25
2023-05-10T04:19:10.267Z,100014.31
2023-05-10T04:21:40.257Z,100007.53
2023-05-10T04:24:09.997Z,100023.91
2023-05-10T04:26:39.501Z,100029.81
2023-05-10T04:29:08.996Z,100027.22
2023-05-10T04:31:38.508Z,100020.25
2023-05-10T04:34:10.554Z,100019.50
2023-05-10T04:36:40.147Z,100019.31
2023-05-10T04:39:11.030Z,99998.84
2023-05-10T04:41:41.641Z,99996.91
2023-05-10T04:44:11.234Z,99981.63
2023-05-10T04:46:40.842Z,99996.25
2023-05-10T04:49:12.922Z,100010.34
2023-05-10T04:51:42.386Z,100019.66
2023-05-10T04:54:11.899Z,100007.59
2023-05-10T04:56:42.004Z,99970.16
2023-05-10T04:59:12.189Z,99993.47
2023-05-10T05:01:41.740Z,99970.16
2023-05-10T05:04:13.830Z,100015.03
2023-05-10T05:06:43.316Z,100035.34
2023-05-10T05:09:12.923Z,100035.03
2023-05-10T05:11:42.686Z,100030.06
2023-05-10T05:14:12.200Z,100021.59
2023-05-10T05:16:41.803Z,100024.22
2023-05-10T05:19:14.006Z,100011.38
2023-05-10T05:21:43.814Z,100030.53
2023-05-10T05:24:13.759Z,100054.53
2023-05-10T05:26:43.264Z,100069.25
2023-05-10T05:29:12.818Z,100059.09
2023-05-10T05:31:42.618Z,100052.34
2023-05-10T05:34:14.746Z,100074.75
2023-05-10T05:36:44.243Z,100071.44
2023-05-10T05:39:14.013Z,100084.47
2023-05-10T05:41:43.566Z,100078.59
2023-05-10T05:44:13.375Z,100085.91
2023-05-10T05:46:43.120Z,100105.09
2023-05-10T05:49:15.354Z,100116.13
2023-05-10T05:51:45.631Z,100132.53
2023-05-10T05:54:15.196Z,100137.94
2023-05-10T05:56:45.387Z,100157.81
2023-05-10T05:59:14.942Z,100158.53
2023-05-10T06:01:44.463Z,100148.47
2023-05-10T06:04:16.735Z,100156.38
2023-05-10T06:06:46.596Z,100162.91
2023-05-10T06:09:16.189Z,100162.44
2023-05-10T06:11:45.983Z,100180.59
2023-05-10T06:14:15.931Z,100217.06
2023-05-10T06:16:45.921Z,100216.22
2023-05-10T06:19:18.447Z,100224.34
2023-05-10T06:21:47.947Z,100220.56
2023-05-10T06:24:17.447Z,100253.47
2023-05-10T06:26:46.964Z,100267.41
2023-05-10T06:29:16.626Z,100278.53
2023-05-10T06:31:46.159Z,100289.72
2023-05-10T06:34:18.327Z,100284.84
2023-05-10T06:36:48.140Z,100298.03
2023-05-10T06:39:17.687Z,100318.69
2023-05-10T06:41:47.234Z,100320.50
2023-05-10T06:44:16.767Z,100321.19
2023-05-10T06:46:46.433Z,100313.81
2023-05-10T06:49:18.766Z,100328.47
2023-05-10T06:51:48.445Z,100327.78
2023-05-10T06:54:17.911Z,100342.50
2023-05-10T06:56:47.544Z,100357.91
2023-05-10T06:59:17.660Z,100331.09
2023-05-10T07:01:47.302Z,100327.53
2023-05-10T07:04:19.432Z,100343.16
2023-05-10T07:06:50.778Z,100313.16
2023-05-10T07:09:20.674Z,100336.81
2023-05-10T07:11:50.163Z,100339.56
2023-05-10T07:14:22.564Z,100336.13
2023-05-10T07:16:52.408Z,100344.81
2023-05-10T07:19:27.108Z,100352.91
2023-05-10T07:21:56.766Z,100361.63
2023-05-10T07:24:26.723Z,100374.47
2023-05-10T07:26:56.359Z,100341.31
2023-05-10T07:29:25.883Z,100298.50
2023-05-10T07:31:57.877Z,100355.81
2023-05-10T07:34:31.575Z,100390.72
2023-05-10T07:37:01.947Z,100390.72
2023-05-10T07:39:31.632Z,100384.31
2023-05-10T07:42:01.216Z,100344.31
2023-05-10T07:44:30.696Z,100365.97
2023-05-10T07:47:00.621Z,100374.09
2023-05-10T07:49:32.704Z,100430.16
2023-05-10T07:52:02.222Z,100431.59
2023-05-10T07:54:31.985Z,100415.28
2023-05-10T07:57:01.631Z,100419.41
2023-05-10T07:59:31.110Z,100431.69
2023-05-10T08:02:00.658Z,100430.88
2023-05-10T08:04:33.046Z,100439.72
2023-05-10T08:07:02.616Z,100446.66
2023-05-10T08:09:32.090Z,100441.97
2023-05-10T08:12:01.609Z,100443.19
2023-05-10T08:14:32.920Z,100427.63
2023-05-10T08:17:02.372Z,100420.72
2023-05-10T08:19:34.644Z,100419.28
2023-05-10T08:22:04.215Z,100426.09
2023-05-10T08:24:35.822Z,100431.03
2023-05-10T08:27:05.329Z,100415.97
2023-05-10T08:29:46.215Z,100423.19
2023-05-10T08:32:19.651Z,100405.94
2023-05-10T08:34:51.931Z,100421.28
2023-05-10T08:37:21.512Z,100428.94
2023-05-10T08:39:51.962Z,100422.22
2023-05-10T08:42:24.109Z,100419.06
2023-05-10T08:44:56.228Z,100439.22
2023-05-10T08:47:26.097Z,100441.81
2023-05-10T08:49:59.193Z,100465.94
2023-05-10T08:52:30.490Z,100480.03
2023-05-10T08:55:00.400Z,100468.38
2023-05-10T08:57:30.064Z,100458.75
2023-05-10T08:59:59.599Z,100461.72
2023-05-10T09:02:29.191Z,100457.94
2023-05-10T09:05:01.441Z,100454.69
2023-05-10T09:07:31.681Z,100436.91
2023-05-10T09:10:01.842Z,100450.28
2023-05-10T09:12:31.647Z,100472.06
2023-05-10T09:15:02.165Z,100481.78
2023-05-10T09:17:32.251Z,100479.66
2023-05-10T09:20:05.968Z,100500.69
2023-05-10T09:22:35.538Z,100511.84
2023-05-10T09:25:09.514Z,100519.63
2023-05-10T09:27:39.432Z,100516.19
2023-05-10T09:30:10.779Z,100507.66
2023-05-10T09:32:41.247Z,100512.28
2023-05-10T09:35:18.505Z,100497.38
2023-05-10T09:37:50.523Z,100537.22
2023-05-10T09:40:21.716Z,100544.28
2023-05-10T09:43:00.554Z,100501.63
2023-05-10T09:45:32.572Z,100506.00
2023-05-10T09:48:03.574Z,100520.16
2023-05-10T09:50:35.710Z,100497.50
2023-05-10T09:53:06.724Z,100486.94
2023-05-10T09:55:46.113Z,100464.56
2023-05-10T09:58:16.244Z,100487.16
2023-05-10T10:00:48.869Z,100483.09
2023-05-10T10:03:19.864Z,100478.75
2023-05-10T10:05:52.438Z,100479.38
2023-05-10T10:08:23.302Z,100444.66
2023-05-10T10:10:53.046Z,100372.88
2023-05-10T10:13:22.930Z,100317.44
2023-05-10T10:15:53.748Z,100257.38
2023-05-10T10:18:28.147Z,100198.06
2023-05-10T10:21:00.780Z,100149.44
2023-05-10T10:23:31.248Z,100081.50
2023-05-10T10:26:01.215Z,100008.41
2023-05-10T10:28:37.353Z,100060.66
2023-05-10T10:31:17.939Z,100192.94
2023-05-10T10:33:59.826Z,100290.09
2023-05-10T10:36:32.391Z,100425.16
2023-05-10T10:39:05.424Z,100511.81
2023-05-10T10:41:36.498Z,100651.28
2023-05-10T10:44:27.905Z,100736.47
2023-05-10T10:47:24.381Z,100828.97
2023-05-10T10:49:57.603Z,100890.84
2023-05-10T10:52:34.568Z,100923.56
2023-05-10T10:55:06.330Z,100941.84
2023-05-10T10:57:37.057Z,100953.91
2023-05-10T11:00:26.053Z,100930.84
2023-05-10T11:02:57.331Z,100822.47
2023-05-10T11:05:38.374Z,100750.16
2023-05-10T11:08:15.877Z,100743.81
2023-05-10T11:10:54.642Z,100734.44
2023-05-10T11:13:34.832Z,100730.63
2023-05-10T11:16:15.078Z,100718.16
2023-05-10T11:18:50.248Z,100736.91
2023-05-10T11:21:19.841Z,100750.56
2023-05-10T11:23:57.341Z,100759.44
2023-05-10T11:26:27.423Z,100757.78
2023-05-10T11:29:00.263Z,100767.97
2023-05-10T11:31:30.190Z,100764.69
2023-05-10T11:34:02.825Z,100766.56
2023-05-10T11:36:33.805Z,100773.66
2023-05-10T11:39:06.813Z,100767.91
2023-05-10T11:41:36.609Z,100760.34
2023-05-10T11:44:06.332Z,100757.56
2023-05-10T11:46:35.935Z,100738.94
2023-05-10T11:49:08.013Z,100741.38
2023-05-10T11:51:40.467Z,100744.88
2023-05-10T11:54:13.893Z,100759.16
2023-05-10T11:56:43.728Z,100764.75
2023-05-10T11:59:13.261Z,100774.53
2023-05-10T12:01:42.763Z,100778.69
2023-05-10T12:04:12.718Z,100779.66
2023-05-10T12:06:45.209Z,100798.84
2023-05-10T12:09:23.008Z,100805.00
2023-05-10T12:12:02.158Z,100805.72
2023-05-10T12:14:34.461Z,100811.34
2023-05-10T12:17:03.981Z,100790.19
2023-05-10T12:19:40.946Z,100772.31
2023-05-10T12:22:10.508Z,100784.72
2023-05-10T12:24:42.726Z,100779.53
2023-05-10T12:27:13.471Z,100779.81
2023-05-10T12:29:45.764Z,100786.78
2023-05-10T12:32:15.342Z,100785.81
2023-05-10T12:34:44.912Z,100807.47
2023-05-10T12:37:14.408Z,100803.22
2023-05-10T12:39:48.112Z,100809.78
2023-05-10T12:42:17.635Z,100821.00
2023-05-10T12:44:47.321Z,100825.28
2023-05-10T12:47:16.875Z,100827.38
2023-05-10T12:49:46.406Z,100821.03
2023-05-10T12:52:15.950Z,100835.69
2023-05-10T12:54:47.997Z,100842.75
2023-05-10T12:57:17.535Z,100833.41
2023-05-10T12:59:47.038Z,100830.22
2023-05-10T13:02:18.932Z,100838.25
2023-05-10T13:04:50.819Z,100839.53
2023-05-10T13:07:20.609Z,100841.56
2023-05-10T13:09:52.704Z,100837.91
2023-05-10T13:12:22.211Z,100847.59
2023-05-10T13:14:52.050Z,100835.28
2023-05-10T13:17:21.557Z,100835.16
2023-05-10T13:19:51.196Z,100846.81
2023-05-10T13:22:32.558Z,100856.84
2023-05-10T13:25:12.840Z,100854.97
2023-05-10T13:27:43.026Z,100861.81
2023-05-10T13:30:13.314Z,100873.44
2023-05-10T13:32:42.903Z,100870.28
2023-05-10T13:35:12.847Z,100867.75
2023-05-10T13:37:42.331Z,100869.38
2023-05-10T13:40:16.791Z,100885.34
2023-05-10T13:42:46.585Z,100906.47
2023-05-10T13:45:16.743Z,100921.78
2023-05-10T13:47:46.473Z,100960.88
2023-05-10T13:50:16.515Z,101046.91
2023-05-10T13:52:46.008Z,101069.31
2023-05-10T13:55:18.348Z,101078.81
2023-05-10T13:57:48.656Z,101075.56
2023-05-10T14:00:18.949Z,101075.69
2023-05-10T14:02:48.685Z,101081.53
2023-05-10T14:05:19.323Z,101078.06
2023-05-10T14:07:51.957Z,101076.94
2023-05-10T14:10:24.105Z,101072.06
2023-05-10T14:12:53.964Z,101069.34
2023-05-10T14:15:23.699Z,101070.38
2023-05-10T14:17:53.222Z,101069.47
2023-05-10T14:20:22.740Z,101078.41
2023-05-10T14:22:52.246Z,101074.41
2023-05-10T14:25:24.315Z,101078.81
2023-05-10T14:27:55.769Z,101076.16
2023-05-10T14:30:25.305Z,101078.81
2023-05-10T14:32:55.199Z,101074.72
2023-05-10T14:35:25.352Z,101070.72
2023-05-10T14:37:54.986Z,101063.03
2023-05-10T14:40:27.185Z,101061.25
2023-05-10T14:42:57.518Z,101063.94
2023-05-10T14:45:27.105Z,101055.25
2023-05-10T14:47:56.734Z,101047.09
2023-05-10T14:50:36.653Z,101043.72
2023-05-10T14:53:06.932Z,101023.78
2023-05-10T14:55:39.408Z,101022.41
2023-05-10T14:58:09.036Z,101024.50
2023-05-10T15:00:38.495Z,101031.69
2023-05-10T15:03:08.649Z,101030.47
2023-05-10T15:05:38.843Z,101017.03
2023-05-10T15:08:08.457Z,100999.34
2023-05-10T15:10:40.825Z,100974.22
2023-05-10T15:13:10.342Z,100935.13
2023-05-10T15:15:39.937Z,100937.13
2023-05-10T15:18:09.428Z,100936.47
2023-05-10T15:20:39.010Z,100913.69
2023-05-10T15:23:08.536Z,100891.94
2023-05-10T15:25:41.169Z,100876.25
2023-05-10T15:28:10.776Z,100886.69
2023-05-10T15:30:40.290Z,100881.00
2023-05-10T15:33:09.884Z,100864.56
2023-05-10T15:35:40.624Z,100851.72
2023-05-10T15:38:10.209Z,100864.16
2023-05-10T15:40:42.293Z,100858.19
2023-05-10T15:43:11.777Z,100831.56
2023-05-10T15:45:41.708Z,100829.81
2023-05-10T15:48:11.280Z,100847.16
2023-05-10T15:50:41.368Z,100851.00
2023-05-10T15:53:10.960Z,100840.59
2023-05-10T15:55:43.100Z,100844.34
2023-05-10T15:58:12.638Z,100869.69
2023-05-10T16:00:42.192Z,100845.34
2023-05-10T16:03:11.948Z,100834.16
2023-05-10T16:05:41.500Z,100862.66
2023-05-10T16:08:11.088Z,100875.56
2023-05-10T16:10:43.264Z,100875.19
2023-05-10T16:13:14.278Z,100887.41
2023-05-10T16:15:43.732Z,100891.63
2023-05-10T16:18:13.607Z,100902.03
2023-05-10T16:20:43.502Z,100915.88
2023-05-10T16:23:14.236Z,100926.75
2023-05-10T16:25:46.398Z,100995.28
2023-05-10T16:28:16.001Z,101089.75
2023-05-10T16:30:47.541Z,101147.41
2023-05-10T16:33:17.292Z,100980.78
2023-05-10T16:35:46.845Z,100921.59
2023-05-10T16:38:16.417Z,100908.94
2023-05-10T16:40:48.693Z,100883.03
2023-05-10T16:43:18.344Z,100863.00
2023-05-10T16:45:47.915Z,100841.06
2023-05-10T16:48:17.411Z,100827.31
2023-05-10T16:50:47.981Z,100817.84
2023-05-10T16:53:18.740Z,100803.03
2023-05-10T16:55:51.043Z,100794.41
2023-05-10T16:58:20.585Z,100775.38
2023-05-10T17:00:50.121Z,100761.78
2023-05-10T17:03:19.718Z,100746.41
2023-05-10T17:05:49.277Z,100729.31
2023-05-10T17:08:19.081Z,100722.50
2023-05-10T17:10:51.241Z,100718.25
2023-05-10T17:13:20.713Z,100726.75
2023-05-10T17:15:50.577Z,100731.94
2023-05-10T17:18:20.173Z,100744.00
2023-05-10T17:20:49.659Z,100747.44
2023-05-10T17:23:19.206Z,100747.44
2023-05-10T17:25:51.315Z,100756.78
2023-05-10T17:28:20.864Z,100758.44
2023-05-10T17:30:50.451Z,100756.84
2023-05-10T17:33:19.974Z,100763.78
2023-05-10T17:35:49.960Z,100775.00
2023-05-10T17:38:19.447Z,100779.34
2023-05-10T17:40:51.476Z,100777.59
2023-05-10T17:43:21.165Z,100783.72
2023-05-10T17:45:50.857Z,100786.50
2023-05-10T17:48:20.411Z,100795.00
2023-05-10T17:50:49.980Z,100802.69
2023-05-10T17:53:19.515Z,100803.69
2023-05-10T17:55:51.659Z,100808.22
2023-05-10T17:58:21.209Z,100816.94
2023-05-10T18:00:50.737Z,100816.47
2023-05-10T18:03:20.225Z,100830.09
2023-05-10T18:05:51.310Z,100835.63
2023-05-10T18:08:23.028Z,100848.28
2023-05-10T18:10:55.198Z,100855.59
2023-05-10T18:13:25.771Z,100867.25
2023-05-10T18:15:55.455Z,100878.00
2023-05-10T18:18:25.508Z,100886.03
2023-05-10T18:20:57.804Z,100899.97
2023-05-10T18:23:27.583Z,100891.38
2023-05-10T18:25:59.740Z,100899.66
2023-05-10T18:28:29.319Z,100898.81
2023-05-10T18:30:59.144Z,100907.03
2023-05-10T18:33:28.734Z,100911.31
2023-05-10T18:35:58.445Z,100914.66
2023-05-10T18:38:27.921Z,100909.25
2023-05-10T18:41:00.279Z,100924.63
2023-05-10T18:43:29.806Z,100926.03
2023-05-10T18:45:59.339Z,100937.88
2023-05-10T18:48:29.106Z,100942.75
2023-05-10T18:50:58.617Z,100941.47
2023-05-10T18:53:28.303Z,100948.00
2023-05-10T18:56:03.537Z,100946.25
2023-05-10T18:58:33.886Z,100955.47
2023-05-10T19:01:03.349Z,100961.44
2023-05-10T19:03:33.179Z,100974.38
2023-05-10T19:06:02.683Z,100970.59
2023-05-10T19:08:32.351Z,100968.84
2023-05-10T19:11:04.453Z,100980.16
2023-05-10T19:13:33.949Z,100973.84
2023-05-10T19:16:07.394Z,100987.50
2023-05-10T19:18:40.056Z,100991.09
2023-05-10T19:21:11.010Z,100997.50
2023-05-10T19:23:42.096Z,101006.31
2023-05-10T19:26:14.706Z,101003.56
2023-05-10T19:28:44.306Z,101002.03
2023-05-10T19:31:14.099Z,101000.72
2023-05-10T19:33:43.626Z,101009.13
2023-05-10T19:36:13.189Z,101013.47
2023-05-10T19:38:42.668Z,101021.97
2023-05-10T19:41:14.829Z,101025.19
2023-05-10T19:43:44.449Z,101025.66
2023-05-10T19:46:14.012Z,101036.00
2023-05-10T19:48:43.530Z,101034.59
2023-05-10T19:51:13.060Z,101035.38
2023-05-10T19:53:45.086Z,101034.59
2023-05-10T19:56:18.475Z,101036.13
2023-05-10T19:58:48.322Z,101039.25
2023-05-10T20:01:17.789Z,101047.63
2023-05-10T20:03:47.695Z,101050.31
2023-05-10T20:06:17.451Z,101050.31
2023-05-10T20:08:46.934Z,101052.78
2023-05-10T20:11:18.990Z,101052.34
2023-05-10T20:13:48.466Z,101050.75
2023-05-10T20:16:18.468Z,101047.34
2023-05-10T20:18:48.199Z,101043.31
2023-05-10T20:21:17.752Z,101042.31
2023-05-10T20:23:47.269Z,101046.25
2023-05-10T20:26:21.668Z,101050.75
2023-05-10T20:28:51.333Z,101050.00
2023-05-10T20:31:20.864Z,101047.34
2023-05-10T20:33:50.373Z,101047.19
2023-05-10T20:36:20.142Z,101047.88
2023-05-10T20:38:51.976Z,101056.97
2023-05-10T20:41:24.905Z,101062.13
2023-05-10T20:43:54.409Z,101065.69
2023-05-10T20:46:23.958Z,101062.13
2023-05-10T20:48:53.444Z,101065.25
2023-05-10T20:51:22.954Z,101064.91
2023-05-10T20:53:52.472Z,101070.81
2023-05-10T20:56:24.545Z,101066.59
2023-05-10T20:58:54.073Z,101068.66
2023-05-10T21:01:23.625Z,101063.66
2023-05-10T21:03:53.210Z,101061.19
2023-05-10T21:06:22.733Z,101063.75
2023-05-10T21:08:52.208Z,101055.00
2023-05-10T21:11:24.318Z,101058.34
2023-05-10T21:13:53.910Z,101064.72
2023-05-10T21:16:23.492Z,101049.63
2023-05-10T21:18:53.033Z,101068.66
2023-05-10T21:21:22.527Z,101066.59
2023-05-10T21:23:52.045Z,101063.47
2023-05-10T21:26:24.386Z,101069.53
2023-05-10T21:28:53.873Z,101069.59
2023-05-10T21:31:26.173Z,101078.38
2023-05-10T21:33:55.738Z,101077.34
2023-05-10T21:36:25.331Z,101076.94
2023-05-10T21:38:54.923Z,101076.69
2023-05-10T21:41:27.086Z,101072.72
2023-05-10T21:43:56.813Z,101077.31
2023-05-10T21:46:26.435Z,101087.19
2023-05-10T21:48:56.002Z,101077.09
2023-05-10T21:51:25.478Z,101076.13
2023-05-10T21:53:54.986Z,101076.28
2023-05-10T21:56:27.142Z,101084.97
2023-05-10T21:58:57.203Z,101082.00
2023-05-10T22:01:26.810Z,101075.31
2023-05-10T22:03:56.402Z,101081.16
2023-05-10T22:06:25.915Z,101080.56
2023-05-10T22:08:55.410Z,101080.00
2023-05-10T22:11:27.635Z,101080.38
2023-05-10T22:13:57.123Z,101083.50
2023-05-10T22:16:28.885Z,101090.97
2023-05-10T22:18:58.553Z,101090.31
2023-05-10T22:21:28.255Z,101088.19
2023-05-10T22:23:57.772Z,101092.88
2023-05-10T22:26:29.910Z,101097.91
2023-05-10T22:28:59.422Z,101101.94
2023-05-10T22:31:29.694Z,101107.66
2023-05-10T22:33:59.237Z,101100.34
2023-05-10T22:36:29.180Z,101107.09
2023-05-10T22:38:58.725Z,101101.69
2023-05-10T22:41:31.062Z,101101.38
2023-05-10T22:44:00.644Z,101104.16
2023-05-10T22:46:30.283Z,101113.00
2023-05-10T22:48:59.825Z,101104.59
2023-05-10T22:51:29.389Z,101113.47
2023-05-10T22:53:58.926Z,101115.63
2023-05-10T22:56:31.040Z,101120.41
2023-05-10T22:59:00.643Z,101124.56
2023-05-10T23:01:30.326Z,101120.72
2023-05-10T23:03:59.855Z,101118.50
2023-05-10T23:06:29.377Z,101115.53
2023-05-10T23:08:58.942Z,101113.47
2023-05-10T23:11:31.145Z,101116.72
2023-05-10T23:14:00.728Z,101110.69
2023-05-10T23:16:30.738Z,101111.13
2023-05-10T23:19:00.427Z,101114.97
2023-05-10T23:21:32.228Z,101115.53
2023-05-10T23:24:01.965Z,101115.09
2023-05-10T23:26:34.342Z,101114.97
2023-05-10T23:29:04.233Z,101121.91
2023-05-10T23:31:33.771Z,101119.44
2023-05-10T23:34:03.542Z,101109.84
2023-05-10T23:36:33.918Z,101111.56
2023-05-10T23:39:03.468Z,101114.56
2023-05-10T23:41:35.740Z,101109.56
2023-05-10T23:44:05.493Z,101107.75
2023-05-10T23:46:35.039Z,101107.22
2023-05-10T23:49:04.648Z,101117.78
2023-05-10T23:51:34.139Z,101122.88
2023-05-10T23:54:03.702Z,101126.91
2023-05-10T23:56:35.906Z,101124.25
2023-05-10T23:59:06.065Z,101121.75
